sensor_id;sensor_type;location;lat;lon;timestamp;pressure;altitude;pressure_sealevel;temperature;humidity
64616;BME280;51027;42.162;24.754;2023-04-27T00:01:09;99222.53;;;12.08;70.33
64616;BME280;51027;42.162;24.754;2023-04-27T00:03:35;99233.19;;;12.06;70.53
64616;BME280;51027;42.162;24.754;2023-04-27T00:06:00;99232.50;;;11.86;70.85
64616;BME280;51027;42.162;24.754;2023-04-27T00:08:26;99246.59;;;12.02;70.76
64616;BME280;51027;42.162;24.754;2023-04-27T00:10:51;99226.13;;;11.90;70.70
64616;BME280;51027;42.162;24.754;2023-04-27T00:13:17;99245.72;;;11.86;71.01
64616;BME280;51027;42.162;24.754;2023-04-27T00:15:42;99236.53;;;11.93;71.14
64616;BME280;51027;42.162;24.754;2023-04-27T00:18:09;99243.03;;;12.03;70.96
64616;BME280;51027;42.162;24.754;2023-04-27T00:20:35;99244.22;;;11.97;71.09
64616;BME280;51027;42.162;24.754;2023-04-27T00:23:00;99247.22;;;12.07;71.15
64616;BME280;51027;42.162;24.754;2023-04-27T00:25:25;99245.16;;;11.96;71.13
64616;BME280;51027;42.162;24.754;2023-04-27T00:27:51;99253.38;;;11.90;71.68
64616;BME280;51027;42.162;24.754;2023-04-27T00:30:17;99244.34;;;11.60;71.94
64616;BME280;51027;42.162;24.754;2023-04-27T00:32:42;99265.84;;;11.69;72.73
64616;BME280;51027;42.162;24.754;2023-04-27T00:35:08;99240.00;;;11.41;72.55
64616;BME280;51027;42.162;24.754;2023-04-27T00:37:34;99286.56;;;11.60;72.52
64616;BME280;51027;42.162;24.754;2023-04-27T00:39:59;99274.84;;;11.48;73.38
64616;BME280;51027;42.162;24.754;2023-04-27T00:42:25;99285.66;;;11.42;73.59
64616;BME280;51027;42.162;24.754;2023-04-27T00:44:50;99292.19;;;11.52;73.33
64616;BME280;51027;42.162;24.754;2023-04-27T00:47:16;99278.72;;;11.58;74.03
64616;BME280;51027;42.162;24.754;2023-04-27T00:49:42;99277.69;;;11.43;74.01
64616;BME280;51027;42.162;24.754;2023-04-27T00:52:08;99244.94;;;11.30;73.63
64616;BME280;51027;42.162;24.754;2023-04-27T00:54:33;99282.41;;;11.54;74.12
64616;BME280;51027;42.162;24.754;2023-04-27T00:56:59;99284.16;;;11.55;74.07
64616;BME280;51027;42.162;24.754;2023-04-27T00:59:25;99260.31;;;11.39;73.14
64616;BME280;51027;42.162;24.754;2023-04-27T01:01:51;99263.75;;;11.22;73.09
64616;BME280;51027;42.162;24.754;2023-04-27T01:04:18;99283.03;;;11.42;73.76
64616;BME280;51027;42.162;24.754;2023-04-27T01:06:43;99273.66;;;11.36;72.89
64616;BME280;51027;42.162;24.754;2023-04-27T01:09:09;99272.63;;;11.03;72.79
64616;BME280;51027;42.162;24.754;2023-04-27T01:11:35;99294.88;;;11.33;72.36
64616;BME280;51027;42.162;24.754;2023-04-27T01:14:05;99305.41;;;11.33;71.82
64616;BME280;51027;42.162;24.754;2023-04-27T01:16:32;99257.91;;;10.99;70.85
64616;BME280;51027;42.162;24.754;2023-04-27T01:18:57;99306.63;;;11.45;71.29
64616;BME280;51027;42.162;24.754;2023-04-27T01:21:23;99286.53;;;11.42;69.91
64616;BME280;51027;42.162;24.754;2023-04-27T01:23:49;99306.69;;;11.43;69.66
64616;BME280;51027;42.162;24.754;2023-04-27T01:26:14;99327.78;;;11.43;69.48
64616;BME280;51027;42.162;24.754;2023-04-27T01:28:41;99326.06;;;11.42;69.44
64616;BME280;51027;42.162;24.754;2023-04-27T01:31:07;99327.72;;;11.45;68.89
64616;BME280;51027;42.162;24.754;2023-04-27T01:33:32;99322.56;;;11.24;68.76
64616;BME280;51027;42.162;24.754;2023-04-27T01:35:58;99327.53;;;11.31;68.70
64616;BME280;51027;42.162;24.754;2023-04-27T01:38:23;99307.03;;;11.18;68.91
64616;BME280;51027;42.162;24.754;2023-04-27T01:40:49;99328.00;;;11.39;68.47
64616;BME280;51027;42.162;24.754;2023-04-27T01:43:14;99322.50;;;11.07;68.43
64616;BME280;51027;42.162;24.754;2023-04-27T01:45:40;99337.66;;;11.21;68.66
64616;BME280;51027;42.162;24.754;2023-04-27T01:48:05;99342.69;;;11.44;68.17
64616;BME280;51027;42.162;24.754;2023-04-27T01:50:31;99341.72;;;11.28;68.27
64616;BME280;51027;42.162;24.754;2023-04-27T01:52:56;99347.50;;;11.17;68.76
64616;BME280;51027;42.162;24.754;2023-04-27T01:55:22;99343.75;;;11.40;68.32
64616;BME280;51027;42.162;24.754;2023-04-27T01:57:47;99348.13;;;11.22;68.10
64616;BME280;51027;42.162;24.754;2023-04-27T02:00:13;99348.34;;;11.18;68.70
64616;BME280;51027;42.162;24.754;2023-04-27T02:02:38;99355.81;;;11.27;68.53
64616;BME280;51027;42.162;24.754;2023-04-27T02:05:04;99357.03;;;11.39;68.46
64616;BME280;51027;42.162;24.754;2023-04-27T02:07:29;99363.88;;;11.24;68.12
64616;BME280;51027;42.162;24.754;2023-04-27T02:09:55;99359.16;;;11.31;67.98
64616;BME280;51027;42.162;24.754;2023-04-27T02:12:20;99367.50;;;11.21;67.82
64616;BME280;51027;42.162;24.754;2023-04-27T02:14:45;99368.16;;;11.27;68.04
64616;BME280;51027;42.162;24.754;2023-04-27T02:17:11;99364.78;;;11.23;68.23
64616;BME280;51027;42.162;24.754;2023-04-27T02:19:36;99363.66;;;11.29;68.13
64616;BME280;51027;42.162;24.754;2023-04-27T02:22:02;99370.47;;;11.33;67.47
64616;BME280;51027;42.162;24.754;2023-04-27T02:24:28;99373.19;;;11.31;67.83
64616;BME280;51027;42.162;24.754;2023-04-27T02:26:54;99372.16;;;11.16;67.41
64616;BME280;51027;42.162;24.754;2023-04-27T02:29:19;99373.13;;;11.33;67.68
64616;BME280;51027;42.162;24.754;2023-04-27T02:31:45;99382.09;;;11.47;67.10
64616;BME280;51027;42.162;24.754;2023-04-27T02:34:10;99376.59;;;11.52;66.99
64616;BME280;51027;42.162;24.754;2023-04-27T02:36:36;99377.94;;;11.61;66.84
64616;BME280;51027;42.162;24.754;2023-04-27T02:39:01;99368.56;;;11.36;66.31
64616;BME280;51027;42.162;24.754;2023-04-27T02:41:30;99382.78;;;11.51;66.51
64616;BME280;51027;42.162;24.754;2023-04-27T02:43:56;99384.56;;;11.14;66.64
64616;BME280;51027;42.162;24.754;2023-04-27T02:46:22;99383.63;;;11.34;66.68
64616;BME280;51027;42.162;24.754;2023-04-27T02:48:47;99389.78;;;11.52;66.73
64616;BME280;51027;42.162;24.754;2023-04-27T02:51:13;99391.44;;;11.54;66.11
64616;BME280;51027;42.162;24.754;2023-04-27T02:53:38;99389.25;;;11.63;66.35
64616;BME280;51027;42.162;24.754;2023-04-27T02:56:04;99393.56;;;11.65;65.54
64616;BME280;51027;42.162;24.754;2023-04-27T02:58:29;99403.19;;;11.66;65.46
64616;BME280;51027;42.162;24.754;2023-04-27T03:00:55;99401.41;;;11.67;65.23
64616;BME280;51027;42.162;24.754;2023-04-27T03:03:22;99405.09;;;11.63;65.49
64616;BME280;51027;42.162;24.754;2023-04-27T03:05:47;99390.91;;;11.65;64.83
64616;BME280;51027;42.162;24.754;2023-04-27T03:08:13;99403.63;;;11.74;65.01
64616;BME280;51027;42.162;24.754;2023-04-27T03:10:39;99392.31;;;11.72;64.54
64616;BME280;51027;42.162;24.754;2023-04-27T03:13:04;99409.31;;;11.48;64.16
64616;BME280;51027;42.162;24.754;2023-04-27T03:15:30;99394.50;;;11.45;64.33
64616;BME280;51027;42.162;24.754;2023-04-27T03:17:56;99390.00;;;11.47;65.34
64616;BME280;51027;42.162;24.754;2023-04-27T03:20:21;99397.00;;;11.48;64.97
64616;BME280;51027;42.162;24.754;2023-04-27T03:22:47;99414.66;;;11.65;64.59
64616;BME280;51027;42.162;24.754;2023-04-27T03:25:12;99422.16;;;11.56;64.47
64616;BME280;51027;42.162;24.754;2023-04-27T03:27:38;99421.31;;;11.55;64.23
64616;BME280;51027;42.162;24.754;2023-04-27T03:30:04;99427.28;;;11.59;64.07
64616;BME280;51027;42.162;24.754;2023-04-27T03:32:29;99423.59;;;11.25;63.94
64616;BME280;51027;42.162;24.754;2023-04-27T03:34:55;99413.16;;;11.22;65.06
64616;BME280;51027;42.162;24.754;2023-04-27T03:37:20;99422.84;;;11.21;64.91
64616;BME280;51027;42.162;24.754;2023-04-27T03:39:46;99384.13;;;11.05;64.62
64616;BME280;51027;42.162;24.754;2023-04-27T03:42:12;99424.63;;;11.21;64.54
64616;BME280;51027;42.162;24.754;2023-04-27T03:44:37;99425.56;;;11.39;64.54
64616;BME280;51027;42.162;24.754;2023-04-27T03:47:03;99419.88;;;11.29;64.30
64616;BME280;51027;42.162;24.754;2023-04-27T03:49:33;99432.91;;;11.32;64.60
64616;BME280;51027;42.162;24.754;2023-04-27T03:51:59;99431.53;;;11.23;64.51
64616;BME280;51027;42.162;24.754;2023-04-27T03:54:24;99434.63;;;11.33;64.67
64616;BME280;51027;42.162;24.754;2023-04-27T03:56:49;99435.78;;;11.28;64.73
64616;BME280;51027;42.162;24.754;2023-04-27T03:59:15;99441.66;;;11.33;64.65
64616;BME280;51027;42.162;24.754;2023-04-27T04:01:40;99446.53;;;11.42;63.92
64616;BME280;51027;42.162;24.754;2023-04-27T04:04:06;99451.06;;;11.19;64.16
64616;BME280;51027;42.162;24.754;2023-04-27T04:06:31;99437.25;;;11.14;64.31
64616;BME280;51027;42.162;24.754;2023-04-27T04:08:57;99462.91;;;11.30;64.17
64616;BME280;51027;42.162;24.754;2023-04-27T04:11:22;99454.34;;;11.43;63.33
64616;BME280;51027;42.162;24.754;2023-04-27T04:13:48;99458.28;;;11.35;63.39
64616;BME280;51027;42.162;24.754;2023-04-27T04:16:13;99453.72;;;11.38;63.32
64616;BME280;51027;42.162;24.754;2023-04-27T04:18:39;99464.63;;;11.31;63.00
64616;BME280;51027;42.162;24.754;2023-04-27T04:21:05;99467.13;;;11.52;62.80
64616;BME280;51027;42.162;24.754;2023-04-27T04:23:30;99471.47;;;11.53;62.52
64616;BME280;51027;42.162;24.754;2023-04-27T04:25:57;99475.03;;;11.71;62.34
64616;BME280;51027;42.162;24.754;2023-04-27T04:28:23;99471.59;;;11.50;62.28
64616;BME280;51027;42.162;24.754;2023-04-27T04:30:49;99475.34;;;11.46;62.51
64616;BME280;51027;42.162;24.754;2023-04-27T04:33:16;99482.75;;;11.57;61.81
64616;BME280;51027;42.162;24.754;2023-04-27T04:35:41;99483.75;;;11.54;62.21
64616;BME280;51027;42.162;24.754;2023-04-27T04:38:07;99480.22;;;11.54;62.05
64616;BME280;51027;42.162;24.754;2023-04-27T04:40:33;99481.03;;;11.37;62.21
64616;BME280;51027;42.162;24.754;2023-04-27T04:42:58;99480.94;;;11.39;62.55
64616;BME280;51027;42.162;24.754;2023-04-27T04:45:24;99467.31;;;11.29;62.44
64616;BME280;51027;42.162;24.754;2023-04-27T04:47:53;99494.69;;;11.64;62.41
64616;BME280;51027;42.162;24.754;2023-04-27T04:50:18;99492.94;;;11.46;62.08
64616;BME280;51027;42.162;24.754;2023-04-27T04:52:44;99479.59;;;11.49;62.39
64616;BME280;51027;42.162;24.754;2023-04-27T04:55:09;99498.41;;;11.79;61.99
64616;BME280;51027;42.162;24.754;2023-04-27T04:57:35;99453.38;;;11.46;61.95
64616;BME280;51027;42.162;24.754;2023-04-27T05:00:00;99501.00;;;11.80;61.86
64616;BME280;51027;42.162;24.754;2023-04-27T05:02:26;99476.09;;;11.48;62.35
64616;BME280;51027;42.162;24.754;2023-04-27T05:04:52;99492.44;;;11.75;62.05
64616;BME280;51027;42.162;24.754;2023-04-27T05:07:17;99520.53;;;11.76;61.72
64616;BME280;51027;42.162;24.754;2023-04-27T05:09:42;99509.63;;;11.65;61.90
64616;BME280;51027;42.162;24.754;2023-04-27T05:12:08;99494.84;;;11.42;62.30
64616;BME280;51027;42.162;24.754;2023-04-27T05:14:34;99500.94;;;11.44;62.83
64616;BME280;51027;42.162;24.754;2023-04-27T05:17:00;99505.56;;;11.58;62.11
64616;BME280;51027;42.162;24.754;2023-04-27T05:19:28;99527.25;;;11.65;61.93
64616;BME280;51027;42.162;24.754;2023-04-27T05:21:53;99528.88;;;11.67;61.46
64616;BME280;51027;42.162;24.754;2023-04-27T05:24:19;99527.25;;;11.65;61.13
64616;BME280;51027;42.162;24.754;2023-04-27T05:26:44;99530.50;;;11.51;61.71
64616;BME280;51027;42.162;24.754;2023-04-27T05:29:09;99530.50;;;11.51;62.43
64616;BME280;51027;42.162;24.754;2023-04-27T05:31:35;99509.47;;;11.49;62.32
64616;BME280;51027;42.162;24.754;2023-04-27T05:34:00;99526.91;;;11.52;62.34
64616;BME280;51027;42.162;24.754;2023-04-27T05:36:26;99534.75;;;11.35;61.71
64616;BME280;51027;42.162;24.754;2023-04-27T05:38:53;99543.06;;;11.65;62.25
64616;BME280;51027;42.162;24.754;2023-04-27T05:41:18;99531.00;;;11.59;61.16
64616;BME280;51027;42.162;24.754;2023-04-27T05:43:43;99531.78;;;11.61;60.88
64616;BME280;51027;42.162;24.754;2023-04-27T05:46:12;99537.41;;;11.53;61.20
64616;BME280;51027;42.162;24.754;2023-04-27T05:48:38;99537.47;;;11.52;59.98
64616;BME280;51027;42.162;24.754;2023-04-27T05:51:03;99544.78;;;11.66;59.87
64616;BME280;51027;42.162;24.754;2023-04-27T05:53:29;99543.41;;;11.57;60.12
64616;BME280;51027;42.162;24.754;2023-04-27T05:55:56;99547.72;;;11.39;60.26
64616;BME280;51027;42.162;24.754;2023-04-27T05:58:23;99553.25;;;11.33;60.19
64616;BME280;51027;42.162;24.754;2023-04-27T06:00:49;99560.06;;;11.39;60.07
64616;BME280;51027;42.162;24.754;2023-04-27T06:03:14;99566.50;;;11.71;59.75
64616;BME280;51027;42.162;24.754;2023-04-27T06:05:40;99555.59;;;11.60;59.38
64616;BME280;51027;42.162;24.754;2023-04-27T06:08:06;99561.03;;;11.57;59.98
64616;BME280;51027;42.162;24.754;2023-04-27T06:10:31;99560.22;;;11.73;59.81
64616;BME280;51027;42.162;24.754;2023-04-27T06:12:56;99566.91;;;11.43;60.03
64616;BME280;51027;42.162;24.754;2023-04-27T06:15:22;99561.22;;;11.52;60.06
64616;BME280;51027;42.162;24.754;2023-04-27T06:17:47;99559.97;;;11.40;60.58
64616;BME280;51027;42.162;24.754;2023-04-27T06:20:13;99563.59;;;11.77;59.87
64616;BME280;51027;42.162;24.754;2023-04-27T06:22:38;99543.78;;;11.68;59.68
64616;BME280;51027;42.162;24.754;2023-04-27T06:25:07;99556.78;;;11.52;59.24
64616;BME280;51027;42.162;24.754;2023-04-27T06:27:33;99542.91;;;11.49;58.68
64616;BME280;51027;42.162;24.754;2023-04-27T06:29:59;99550.06;;;11.66;58.86
64616;BME280;51027;42.162;24.754;2023-04-27T06:32:25;99542.47;;;11.58;58.80
64616;BME280;51027;42.162;24.754;2023-04-27T06:34:51;99551.56;;;11.32;59.10
64616;BME280;51027;42.162;24.754;2023-04-27T06:37:16;99558.41;;;11.36;59.67
64616;BME280;51027;42.162;24.754;2023-04-27T06:39:43;99561.31;;;11.69;59.28
64616;BME280;51027;42.162;24.754;2023-04-27T06:42:09;99560.50;;;11.88;58.96
64616;BME280;51027;42.162;24.754;2023-04-27T06:44:34;99562.97;;;11.91;58.89
64616;BME280;51027;42.162;24.754;2023-04-27T06:46:59;99568.03;;;11.95;59.07
64616;BME280;51027;42.162;24.754;2023-04-27T06:49:25;99556.91;;;12.26;58.43
64616;BME280;51027;42.162;24.754;2023-04-27T06:51:50;99566.00;;;12.38;58.51
64616;BME280;51027;42.162;24.754;2023-04-27T06:54:16;99573.00;;;12.39;57.87
64616;BME280;51027;42.162;24.754;2023-04-27T06:56:42;99542.19;;;12.21;58.32
64616;BME280;51027;42.162;24.754;2023-04-27T06:59:08;99570.72;;;12.31;58.27
64616;BME280;51027;42.162;24.754;2023-04-27T07:01:34;99570.78;;;12.66;58.10
64616;BME280;51027;42.162;24.754;2023-04-27T07:03:59;99574.44;;;12.63;57.85
64616;BME280;51027;42.162;24.754;2023-04-27T07:06:25;99571.72;;;12.65;58.11
64616;BME280;51027;42.162;24.754;2023-04-27T07:08:50;99564.88;;;12.95;57.72
64616;BME280;51027;42.162;24.754;2023-04-27T07:11:16;99572.72;;;13.14;57.75
64616;BME280;51027;42.162;24.754;2023-04-27T07:13:42;99570.03;;;12.98;57.67
64616;BME280;51027;42.162;24.754;2023-04-27T07:16:07;99581.06;;;12.72;57.39
64616;BME280;51027;42.162;24.754;2023-04-27T07:18:32;99569.78;;;13.03;57.40
64616;BME280;51027;42.162;24.754;2023-04-27T07:20:58;99567.25;;;13.19;58.00
64616;BME280;51027;42.162;24.754;2023-04-27T07:23:23;99567.97;;;13.38;57.84
64616;BME280;51027;42.162;24.754;2023-04-27T07:25:49;99561.88;;;13.53;57.79
64616;BME280;51027;42.162;24.754;2023-04-27T07:28:14;99563.78;;;13.34;57.39
64616;BME280;51027;42.162;24.754;2023-04-27T07:30:40;99571.41;;;13.40;57.11
64616;BME280;51027;42.162;24.754;2023-04-27T07:33:07;99562.06;;;13.66;56.95
64616;BME280;51027;42.162;24.754;2023-04-27T07:35:32;99557.81;;;13.64;56.94
64616;BME280;51027;42.162;24.754;2023-04-27T07:37:59;99565.25;;;13.73;55.83
64616;BME280;51027;42.162;24.754;2023-04-27T07:40:26;99559.13;;;13.39;56.09
64616;BME280;51027;42.162;24.754;2023-04-27T07:42:52;99559.56;;;13.47;55.95
64616;BME280;51027;42.162;24.754;2023-04-27T07:45:18;99570.50;;;13.90;55.84
64616;BME280;51027;42.162;24.754;2023-04-27T07:47:44;99572.78;;;13.80;54.83
64616;BME280;51027;42.162;24.754;2023-04-27T07:50:10;99558.03;;;13.43;55.58
64616;BME280;51027;42.162;24.754;2023-04-27T07:52:38;99563.63;;;13.70;55.02
64616;BME280;51027;42.162;24.754;2023-04-27T07:55:04;99560.56;;;13.78;54.15
64616;BME280;51027;42.162;24.754;2023-04-27T07:57:30;99541.16;;;13.62;55.01
64616;BME280;51027;42.162;24.754;2023-04-27T07:59:56;99555.69;;;13.86;54.52
64616;BME280;51027;42.162;24.754;2023-04-27T08:02:22;99557.97;;;13.61;54.43
64616;BME280;51027;42.162;24.754;2023-04-27T08:04:48;99561.44;;;13.94;54.11
64616;BME280;51027;42.162;24.754;2023-04-27T08:07:15;99557.75;;;14.28;53.24
64616;BME280;51027;42.162;24.754;2023-04-27T08:09:40;99545.97;;;14.34;53.05
64616;BME280;51027;42.162;24.754;2023-04-27T08:12:06;99560.63;;;14.71;52.10
64616;BME280;51027;42.162;24.754;2023-04-27T08:14:33;99540.84;;;14.77;51.93
64616;BME280;51027;42.162;24.754;2023-04-27T08:16:59;99553.22;;;14.92;50.11
64616;BME280;51027;42.162;24.754;2023-04-27T08:19:25;99556.03;;;15.33;49.74
64616;BME280;51027;42.162;24.754;2023-04-27T08:21:50;99541.53;;;14.80;50.31
64616;BME280;51027;42.162;24.754;2023-04-27T08:24:15;99547.09;;;15.06;50.20
64616;BME280;51027;42.162;24.754;2023-04-27T08:26:41;99542.78;;;15.47;49.79
64616;BME280;51027;42.162;24.754;2023-04-27T08:29:06;99541.81;;;15.48;49.54
64616;BME280;51027;42.162;24.754;2023-04-27T08:31:32;99532.06;;;14.90;50.17
64616;BME280;51027;42.162;24.754;2023-04-27T08:33:57;99544.84;;;15.14;50.13
64616;BME280;51027;42.162;24.754;2023-04-27T08:36:23;99541.72;;;15.36;49.47
64616;BME280;51027;42.162;24.754;2023-04-27T08:38:51;99532.59;;;15.11;50.23
64616;BME280;51027;42.162;24.754;2023-04-27T08:41:18;99531.75;;;15.39;48.63
64616;BME280;51027;42.162;24.754;2023-04-27T08:43:45;99535.59;;;15.64;48.37
64616;BME280;51027;42.162;24.754;2023-04-27T08:46:10;99516.25;;;15.62;48.32
64616;BME280;51027;42.162;24.754;2023-04-27T08:48:36;99534.53;;;15.95;47.60
64616;BME280;51027;42.162;24.754;2023-04-27T08:51:02;99511.31;;;15.55;48.05
64616;BME280;51027;42.162;24.754;2023-04-27T08:53:28;99532.09;;;15.63;47.81
64616;BME280;51027;42.162;24.754;2023-04-27T08:55:54;99513.81;;;16.00;47.58
64616;BME280;51027;42.162;24.754;2023-04-27T08:58:21;99518.94;;;16.30;47.09
64616;BME280;51027;42.162;24.754;2023-04-27T09:00:47;99519.44;;;16.49;47.03
64616;BME280;51027;42.162;24.754;2023-04-27T09:03:23;99502.06;;;16.43;47.18
64616;BME280;51027;42.162;24.754;2023-04-27T09:05:49;99503.94;;;17.08;47.35
64616;BME280;51027;42.162;24.754;2023-04-27T09:08:15;99504.91;;;17.20;45.04
64616;BME280;51027;42.162;24.754;2023-04-27T09:10:48;99509.13;;;17.35;44.18
64616;BME280;51027;42.162;24.754;2023-04-27T09:13:14;99495.75;;;17.11;45.38
64616;BME280;51027;42.162;24.754;2023-04-27T09:15:50;99502.31;;;17.44;45.61
64616;BME280;51027;42.162;24.754;2023-04-27T09:18:21;99504.47;;;17.26;43.20
64616;BME280;51027;42.162;24.754;2023-04-27T09:20:50;99498.28;;;17.00;43.52
64616;BME280;51027;42.162;24.754;2023-04-27T09:25:55;99500.63;;;17.05;44.16
64616;BME280;51027;42.162;24.754;2023-04-27T09:28:21;99498.81;;;17.05;44.08
64616;BME280;51027;42.162;24.754;2023-04-27T09:30:51;99502.47;;;16.25;44.67
64616;BME280;51027;42.162;24.754;2023-04-27T09:33:30;99490.41;;;17.11;43.09
64616;BME280;51027;42.162;24.754;2023-04-27T09:36:00;99496.25;;;17.54;44.43
64616;BME280;51027;42.162;24.754;2023-04-27T09:38:26;99473.09;;;18.28;43.81
64616;BME280;51027;42.162;24.754;2023-04-27T09:40:52;99500.84;;;17.40;44.01
64616;BME280;51027;42.162;24.754;2023-04-27T09:43:18;99504.88;;;16.55;44.31
64616;BME280;51027;42.162;24.754;2023-04-27T09:45:44;99496.72;;;16.58;44.25
64616;BME280;51027;42.162;24.754;2023-04-27T09:48:11;99490.78;;;16.67;44.98
64616;BME280;51027;42.162;24.754;2023-04-27T09:50:39;99497.97;;;16.52;45.46
64616;BME280;51027;42.162;24.754;2023-04-27T09:53:07;99498.88;;;16.38;45.50
64616;BME280;51027;42.162;24.754;2023-04-27T09:55:38;99483.50;;;16.17;46.98
64616;BME280;51027;42.162;24.754;2023-04-27T09:58:21;99501.59;;;16.24;47.99
64616;BME280;51027;42.162;24.754;2023-04-27T10:01:01;99493.31;;;16.56;47.23
64616;BME280;51027;42.162;24.754;2023-04-27T10:08:55;99449.78;;;16.96;48.07
64616;BME280;51027;42.162;24.754;2023-04-27T10:11:36;99483.25;;;17.50;47.57
64616;BME280;51027;42.162;24.754;2023-04-27T10:14:06;99481.38;;;17.14;46.80
64616;BME280;51027;42.162;24.754;2023-04-27T10:16:53;99482.03;;;17.17;47.72
64616;BME280;51027;42.162;24.754;2023-04-27T10:19:18;99468.16;;;17.38;47.50
64616;BME280;51027;42.162;24.754;2023-04-27T10:22:01;99486.59;;;16.90;47.89
64616;BME280;51027;42.162;24.754;2023-04-27T10:24:34;99484.44;;;16.69;48.00
64616;BME280;51027;42.162;24.754;2023-04-27T10:27:01;99488.91;;;16.94;47.41
64616;BME280;51027;42.162;24.754;2023-04-27T10:29:34;99480.84;;;17.09;45.94
64616;BME280;51027;42.162;24.754;2023-04-27T10:32:05;99480.69;;;16.72;47.04
64616;BME280;51027;42.162;24.754;2023-04-27T10:34:33;99492.59;;;16.66;48.52
64616;BME280;51027;42.162;24.754;2023-04-27T10:37:05;99491.13;;;16.75;48.65
64616;BME280;51027;42.162;24.754;2023-04-27T10:39:35;99493.53;;;16.65;49.04
64616;BME280;51027;42.162;24.754;2023-04-27T10:42:01;99497.44;;;16.60;48.33
64616;BME280;51027;42.162;24.754;2023-04-27T10:44:31;99500.13;;;16.60;48.68
64616;BME280;51027;42.162;24.754;2023-04-27T10:46:59;99496.53;;;16.74;47.23
64616;BME280;51027;42.162;24.754;2023-04-27T10:49:28;99503.59;;;16.87;45.14
64616;BME280;51027;42.162;24.754;2023-04-27T10:51:56;99501.34;;;16.68;43.78
64616;BME280;51027;42.162;24.754;2023-04-27T10:54:26;99499.88;;;16.77;43.54
64616;BME280;51027;42.162;24.754;2023-04-27T10:56:52;99496.66;;;16.85;44.58
64616;BME280;51027;42.162;24.754;2023-04-27T10:59:18;99494.09;;;16.70;44.10
64616;BME280;51027;42.162;24.754;2023-04-27T11:01:47;99510.06;;;16.83;44.02
64616;BME280;51027;42.162;24.754;2023-04-27T11:04:14;99505.31;;;16.88;44.80
64616;BME280;51027;42.162;24.754;2023-04-27T11:06:42;99506.56;;;16.70;43.03
64616;BME280;51027;42.162;24.754;2023-04-27T11:09:08;99489.38;;;16.61;43.39
64616;BME280;51027;42.162;24.754;2023-04-27T11:11:35;99504.72;;;16.43;42.52
64616;BME280;51027;42.162;24.754;2023-04-27T11:14:00;99517.38;;;16.13;42.91
64616;BME280;51027;42.162;24.754;2023-04-27T11:16:28;99517.25;;;16.29;42.68
64616;BME280;51027;42.162;24.754;2023-04-27T11:18:53;99515.09;;;16.48;43.01
64616;BME280;51027;42.162;24.754;2023-04-27T11:21:19;99514.66;;;16.54;43.03
64616;BME280;51027;42.162;24.754;2023-04-27T11:23:46;99515.13;;;16.07;43.40
64616;BME280;51027;42.162;24.754;2023-04-27T11:26:18;99508.81;;;16.76;43.33
64616;BME280;51027;42.162;24.754;2023-04-27T11:29:05;99511.38;;;16.63;42.31
64616;BME280;51027;42.162;24.754;2023-04-27T11:31:41;99507.47;;;16.56;42.79
64616;BME280;51027;42.162;24.754;2023-04-27T11:34:08;99504.56;;;16.86;42.18
64616;BME280;51027;42.162;24.754;2023-04-27T11:36:40;99505.75;;;16.55;42.47
64616;BME280;51027;42.162;24.754;2023-04-27T11:39:05;99507.00;;;16.89;42.97
64616;BME280;51027;42.162;24.754;2023-04-27T11:41:35;99512.78;;;17.09;42.34
64616;BME280;51027;42.162;24.754;2023-04-27T11:44:08;99499.53;;;16.82;40.87
64616;BME280;51027;42.162;24.754;2023-04-27T11:46:35;99495.53;;;16.89;40.59
64616;BME280;51027;42.162;24.754;2023-04-27T11:49:02;99521.50;;;16.98;40.17
64616;BME280;51027;42.162;24.754;2023-04-27T11:51:31;99507.56;;;17.33;40.17
64616;BME280;51027;42.162;24.754;2023-04-27T11:54:03;99502.47;;;17.30;39.39
64616;BME280;51027;42.162;24.754;2023-04-27T11:56:38;99505.50;;;17.36;40.32
64616;BME280;51027;42.162;24.754;2023-04-27T11:59:04;99503.25;;;17.68;39.08
64616;BME280;51027;42.162;24.754;2023-04-27T12:01:32;99503.44;;;17.91;39.16
64616;BME280;51027;42.162;24.754;2023-04-27T12:03:58;99501.06;;;17.49;39.79
64616;BME280;51027;42.162;24.754;2023-04-27T12:06:27;99504.22;;;17.80;39.21
64616;BME280;51027;42.162;24.754;2023-04-27T12:08:56;99507.00;;;17.53;38.90
64616;BME280;51027;42.162;24.754;2023-04-27T12:11:25;99505.22;;;17.41;39.12
64616;BME280;51027;42.162;24.754;2023-04-27T12:13:55;99510.56;;;17.28;39.08
64616;BME280;51027;42.162;24.754;2023-04-27T12:16:21;99505.84;;;17.32;39.28
64616;BME280;51027;42.162;24.754;2023-04-27T12:18:48;99509.97;;;17.74;38.41
64616;BME280;51027;42.162;24.754;2023-04-27T12:21:14;99506.25;;;17.76;37.98
64616;BME280;51027;42.162;24.754;2023-04-27T12:23:39;99493.25;;;17.59;38.00
64616;BME280;51027;42.162;24.754;2023-04-27T12:26:05;99503.47;;;17.65;38.41
64616;BME280;51027;42.162;24.754;2023-04-27T12:28:30;99503.81;;;17.61;38.21
64616;BME280;51027;42.162;24.754;2023-04-27T12:30:56;99496.97;;;17.56;38.30
64616;BME280;51027;42.162;24.754;2023-04-27T12:33:22;99495.06;;;17.71;37.92
64616;BME280;51027;42.162;24.754;2023-04-27T12:35:47;99503.69;;;17.62;37.42
64616;BME280;51027;42.162;24.754;2023-04-27T12:38:12;99499.22;;;17.75;38.05
64616;BME280;51027;42.162;24.754;2023-04-27T12:40:38;99505.66;;;17.97;38.54
64616;BME280;51027;42.162;24.754;2023-04-27T12:43:03;99499.69;;;18.89;38.08
64616;BME280;51027;42.162;24.754;2023-04-27T12:45:28;99493.31;;;19.36;37.18
64616;BME280;51027;42.162;24.754;2023-04-27T12:47:54;99494.91;;;19.39;37.33
64616;BME280;51027;42.162;24.754;2023-04-27T12:50:19;99496.84;;;19.37;37.63
64616;BME280;51027;42.162;24.754;2023-04-27T12:52:46;99496.31;;;19.09;39.69
64616;BME280;51027;42.162;24.754;2023-04-27T12:55:12;99490.31;;;17.88;40.28